createdAt,value
2019-02-26T00:00:00.951Z,1029.95
2019-02-26T00:00:31.022Z,1029.93
2019-02-26T00:01:00.099Z,1029.98
2019-02-26T00:01:30.788Z,1029.96
2019-02-26T00:02:00.397Z,1029.94
2019-02-26T00:02:28.326Z,1029.97
2019-02-26T00:02:59.275Z,1029.94
2019-02-26T00:03:26.250Z,1029.94
2019-02-26T00:03:51.689Z,1029.93
2019-02-26T00:04:20.803Z,1029.93
2019-02-26T00:04:49.091Z,1029.89
2019-02-26T00:05:17.456Z,1029.93
2019-02-26T00:05:47.811Z,1029.86
2019-02-26T00:06:16.044Z,1029.95
2019-02-26T00:06:45.418Z,1029.95
2019-02-26T00:07:14.202Z,1029.95
2019-02-26T00:07:40.971Z,1029.91
2019-02-26T00:08:09.092Z,1029.96
2019-02-26T00:08:38.784Z,1029.97
2019-02-26T00:09:08.848Z,1029.94
2019-02-26T00:09:37.946Z,1029.97
2019-02-26T00:10:07.119Z,1030
2019-02-26T00:10:38.525Z,1030.02
2019-02-26T00:11:06.538Z,1029.97
2019-02-26T00:11:35.267Z,1029.98
2019-02-26T00:12:00.425Z,1029.98
2019-02-26T00:12:29.200Z,1030
2019-02-26T00:12:56.535Z,1030
2019-02-26T00:13:23.345Z,1029.98
2019-02-26T00:13:54.408Z,1029.96
2019-02-26T00:14:22.486Z,1029.97
2019-02-26T00:14:50.564Z,1029.96
2019-02-26T00:15:18.122Z,1029.96
2019-02-26T00:15:48.408Z,1029.95
2019-02-26T00:16:18.323Z,1029.93
2019-02-26T00:16:46.738Z,1029.93
2019-02-26T00:17:17.438Z,1029.92
2019-02-26T00:17:45.746Z,1029.92
2019-02-26T00:18:14.417Z,1029.92
2019-02-26T00:18:42.651Z,1029.88
2019-02-26T00:19:11.860Z,1029.92
2019-02-26T00:19:37.863Z,1029.91
2019-02-26T00:20:05.713Z,1029.88
2019-02-26T00:20:34.250Z,1029.9
2019-02-26T00:21:02.845Z,1029.88
2019-02-26T00:21:31.041Z,1029.89
2019-02-26T00:21:59.671Z,1029.91
2019-02-26T00:22:27.763Z,1029.88
2019-02-26T00:22:57.404Z,1029.88
2019-02-26T00:23:25.665Z,1029.91
2019-02-26T00:23:54.021Z,1029.9
2019-02-26T00:24:22.087Z,1029.94
2019-02-26T00:24:51.857Z,1029.92
2019-02-26T00:25:20.945Z,1029.89
2019-02-26T00:25:47.047Z,1029.87
2019-02-26T00:26:15.507Z,1029.87
2019-02-26T00:26:45.021Z,1029.88
2019-02-26T00:27:12.300Z,1029.88
2019-02-26T00:27:40.389Z,1029.88
2019-02-26T00:28:10.768Z,1029.88
2019-02-26T00:28:39.879Z,1029.87
2019-02-26T00:29:08.626Z,1029.89
2019-02-26T00:29:37.426Z,1029.88
2019-02-26T00:30:07.297Z,1029.89
2019-02-26T00:30:37.456Z,1029.88
2019-02-26T00:31:04.181Z,1029.89
2019-02-26T00:31:32.487Z,1029.9
2019-02-26T00:31:59.629Z,1029.89
2019-02-26T00:32:27.718Z,1029.91
2019-02-26T00:32:57.690Z,1029.92
2019-02-26T00:33:25.042Z,1029.88
2019-02-26T00:33:51.046Z,1029.89
2019-02-26T00:34:19.133Z,1029.86
2019-02-26T00:34:47.212Z,1029.88
2019-02-26T00:35:15.949Z,1029.87
2019-02-26T00:35:46.017Z,1029.86
2019-02-26T00:36:13.282Z,1029.85
2019-02-26T00:36:41.564Z,1029.86
2019-02-26T00:37:09.651Z,1029.89
2019-02-26T00:37:37.741Z,1029.88
2019-02-26T00:38:06.321Z,1029.84
2019-02-26T00:38:35.409Z,1029.85
2019-02-26T00:39:05.094Z,1029.85
2019-02-26T00:39:31.654Z,1029.83
2019-02-26T00:39:57.813Z,1029.85
2019-02-26T00:40:25.894Z,1029.8
2019-02-26T00:40:55.059Z,1029.82
2019-02-26T00:41:24.678Z,1029.79
2019-02-26T00:41:53.547Z,1029.8
2019-02-26T00:42:23.445Z,1029.79
2019-02-26T00:42:52.282Z,1029.77
2019-02-26T00:43:21.488Z,1029.75
2019-02-26T00:43:51.164Z,1029.74
2019-02-26T00:44:18.559Z,1029.73
2019-02-26T00:44:47.090Z,1029.74
2019-02-26T00:45:16.164Z,1029.73
2019-02-26T00:45:45.248Z,1029.73
2019-02-26T00:46:13.375Z,1029.7
2019-02-26T00:46:41.491Z,1029.67
2019-02-26T00:47:09.603Z,1029.66
2019-02-26T00:47:38.658Z,1029.65
2019-02-26T00:48:04.789Z,1029.63
2019-02-26T00:48:31.887Z,1029.62
2019-02-26T00:49:00.715Z,1029.55
2019-02-26T00:49:30.178Z,1029.56
2019-02-26T00:49:57.255Z,1029.54
2019-02-26T00:50:25.137Z,1029.54
2019-02-26T00:50:54.384Z,1029.53
2019-02-26T00:51:23.153Z,1029.53
2019-02-26T00:51:52.758Z,1029.52
2019-02-26T00:52:20.953Z,1029.5
2019-02-26T00:52:49.041Z,1029.52
2019-02-26T00:53:19.476Z,1029.51
2019-02-26T00:53:48.811Z,1029.47
2019-02-26T00:54:14.600Z,1029.51
2019-02-26T00:54:43.671Z,1029.49
2019-02-26T00:55:13.745Z,1029.52
2019-02-26T00:55:42.822Z,1029.49
2019-02-26T00:56:11.887Z,1029.48
2019-02-26T00:56:41.078Z,1029.53
2019-02-26T00:57:11.417Z,1029.51
2019-02-26T00:57:38.921Z,1029.51
2019-02-26T00:58:08.392Z,1029.53
2019-02-26T00:58:35.238Z,1029.53
2019-02-26T00:59:03.407Z,1029.55
2019-02-26T00:59:29.538Z,1029.55
2019-02-26T01:00:00.644Z,1029.59
2019-02-26T01:00:30.685Z,1029.59
2019-02-26T01:00:56.392Z,1029.57
2019-02-26T01:01:25.462Z,1029.57
2019-02-26T01:01:54.784Z,1029.59
2019-02-26T01:02:20.650Z,1029.6
2019-02-26T01:02:46.789Z,1029.58
2019-02-26T01:03:15.338Z,1029.59
2019-02-26T01:03:42.888Z,1029.59
2019-02-26T01:04:09.547Z,1029.59
2019-02-26T01:04:35.686Z,1029.57
2019-02-26T01:05:04.417Z,1029.57
2019-02-26T01:05:31.851Z,1029.57
2019-02-26T01:06:01.537Z,1029.59
2019-02-26T01:06:31.032Z,1029.54
2019-02-26T01:06:57.158Z,1029.57
2019-02-26T01:07:26.030Z,1029.53
2019-02-26T01:07:54.482Z,1029.54
2019-02-26T01:08:22.573Z,1029.48
2019-02-26T01:08:50.661Z,1029.52
2019-02-26T01:09:18.743Z,1029.51
2019-02-26T01:09:47.784Z,1029.52
2019-02-26T01:10:16.752Z,1029.48
2019-02-26T01:10:46.005Z,1029.53
2019-02-26T01:11:14.085Z,1029.53
2019-02-26T01:11:42.915Z,1029.52
2019-02-26T01:12:11.739Z,1029.54
2019-02-26T01:12:42.197Z,1029.52
2019-02-26T01:13:08.307Z,1029.53
2019-02-26T01:13:37.383Z,1029.53
2019-02-26T01:14:05.474Z,1029.5
2019-02-26T01:14:33.452Z,1029.53
2019-02-26T01:15:02.993Z,1029.51
2019-02-26T01:15:29.533Z,1029.54
2019-02-26T01:15:55.643Z,1029.52
2019-02-26T01:16:21.750Z,1029.53
2019-02-26T01:16:48.874Z,1029.51
2019-02-26T01:17:16.899Z,1029.53
2019-02-26T01:17:44.708Z,1029.55
2019-02-26T01:18:12.841Z,1029.54
2019-02-26T01:18:42.158Z,1029.55
2019-02-26T01:19:10.678Z,1029.55
2019-02-26T01:19:38.592Z,1029.56
2019-02-26T01:20:07.185Z,1029.51
2019-02-26T01:20:36.268Z,1029.54
2019-02-26T01:21:05.371Z,1029.53
2019-02-26T01:21:34.138Z,1029.54
2019-02-26T01:22:00.550Z,1029.53
2019-02-26T01:22:26.661Z,1029.53
2019-02-26T01:22:54.793Z,1029.53
2019-02-26T01:23:24.234Z,1029.51
2019-02-26T01:23:49.035Z,1029.53
2019-02-26T01:24:17.117Z,1029.54
2019-02-26T01:24:45.205Z,1029.56
2019-02-26T01:25:15.716Z,1029.57
2019-02-26T01:25:43.359Z,1029.56
2019-02-26T01:26:12.126Z,1029.53
2019-02-26T01:26:38.297Z,1029.56
2019-02-26T01:27:04.467Z,1029.57
2019-02-26T01:27:30.575Z,1029.59
2019-02-26T01:28:00.395Z,1029.56
2019-02-26T01:28:29.227Z,1029.57
2019-02-26T01:28:58.485Z,1029.59
2019-02-26T01:29:27.715Z,1029.55
2019-02-26T01:29:55.764Z,1029.56
2019-02-26T01:30:24.255Z,1029.55
2019-02-26T01:30:55.520Z,1029.55
2019-02-26T01:31:22.387Z,1029.54
2019-02-26T01:31:49.975Z,1029.54
2019-02-26T01:32:20.851Z,1029.53
2019-02-26T01:32:46.156Z,1029.47
2019-02-26T01:33:14.999Z,1029.51
2019-02-26T01:33:46.227Z,1029.52
2019-02-26T01:34:15.717Z,1029.46
2019-02-26T01:34:43.096Z,1029.49
2019-02-26T01:35:12.904Z,1029.51
2019-02-26T01:35:41.012Z,1029.5
2019-02-26T01:36:09.094Z,1029.55
2019-02-26T01:36:38.213Z,1029.53
2019-02-26T01:37:05.902Z,1029.54
2019-02-26T01:37:34.734Z,1029.51
2019-02-26T01:38:03.000Z,1029.54
2019-02-26T01:38:31.141Z,1029.56
2019-02-26T01:39:00.213Z,1029.57
2019-02-26T01:39:29.290Z,1029.57
2019-02-26T01:39:58.381Z,1029.54
2019-02-26T01:40:26.520Z,1029.57
2019-02-26T01:40:56.024Z,1029.55
2019-02-26T01:41:27.150Z,1029.54
2019-02-26T01:41:55.673Z,1029.53
2019-02-26T01:42:24.681Z,1029.56
2019-02-26T01:42:52.104Z,1029.57
2019-02-26T01:43:16.605Z,1029.55
2019-02-26T01:43:42.707Z,1029.54
2019-02-26T01:44:08.925Z,1029.57
2019-02-26T01:44:37.964Z,1029.53
2019-02-26T01:45:04.096Z,1029.55
2019-02-26T01:45:32.426Z,1029.57
2019-02-26T01:46:00.696Z,1029.56
2019-02-26T01:46:27.844Z,1029.53
2019-02-26T01:46:57.766Z,1029.59
2019-02-26T01:47:26.267Z,1029.54
2019-02-26T01:47:54.077Z,1029.53
2019-02-26T01:48:22.190Z,1029.55
2019-02-26T01:48:50.282Z,1029.57
2019-02-26T01:49:19.192Z,1029.55
2019-02-26T01:49:49.242Z,1029.51
2019-02-26T01:50:17.084Z,1029.54
2019-02-26T01:50:45.199Z,1029.54
2019-02-26T01:51:13.834Z,1029.49
2019-02-26T01:51:42.715Z,1029.5
2019-02-26T01:52:12.430Z,1029.46
2019-02-26T01:52:38.344Z,1029.45
2019-02-26T01:53:06.428Z,1029.42
2019-02-26T01:53:34.517Z,1029.41
2019-02-26T01:54:01.636Z,1029.37
2019-02-26T01:54:30.483Z,1029.34
2019-02-26T01:54:59.760Z,1029.35
2019-02-26T01:55:27.616Z,1029.36
2019-02-26T01:55:55.803Z,1029.33
2019-02-26T01:56:23.893Z,1029.31
2019-02-26T01:56:53.394Z,1029.32
2019-02-26T01:57:19.063Z,1029.29
2019-02-26T01:57:47.148Z,1029.25
2019-02-26T01:58:16.501Z,1029.3
2019-02-26T01:58:42.383Z,1029.27
2019-02-26T01:59:10.488Z,1029.27
2019-02-26T01:59:37.621Z,1029.27
2019-02-26T02:00:06.895Z,1029.26
2019-02-26T02:00:31.812Z,1029.24
2019-02-26T02:00:59.897Z,1029.22
2019-02-26T02:01:28.976Z,1029.21
2019-02-26T02:01:58.057Z,1029.2
2019-02-26T02:02:28.174Z,1029.18
2019-02-26T02:02:53.499Z,1029.16
2019-02-26T02:03:20.723Z,1029.17
2019-02-26T02:03:51.283Z,1029.14
2019-02-26T02:04:19.578Z,1029.14
2019-02-26T02:04:47.338Z,1029.11
2019-02-26T02:05:14.457Z,1029.11
2019-02-26T02:05:43.206Z,1029.1
2019-02-26T02:06:11.811Z,1029.09
2019-02-26T02:06:41.324Z,1029.08
2019-02-26T02:07:08.855Z,1029.07
2019-02-26T02:07:36.940Z,1029.05
2019-02-26T02:08:04.094Z,1029.03
2019-02-26T02:08:33.167Z,1029.08
2019-02-26T02:09:02.246Z,1029.06
2019-02-26T02:09:31.304Z,1029.01
2019-02-26T02:10:00.470Z,1029
2019-02-26T02:10:26.516Z,1028.97
2019-02-26T02:10:56.195Z,1028.97
2019-02-26T02:11:23.712Z,1028.95
2019-02-26T02:11:51.789Z,1028.95
2019-02-26T02:12:20.869Z,1028.92
2019-02-26T02:12:49.942Z,1028.91
2019-02-26T02:13:17.955Z,1028.9
2019-02-26T02:13:48.019Z,1028.91
2019-02-26T02:14:17.169Z,1028.9
2019-02-26T02:14:43.225Z,1028.92
2019-02-26T02:15:10.027Z,1028.9
2019-02-26T02:15:39.997Z,1028.9
2019-02-26T02:16:08.981Z,1028.91
2019-02-26T02:16:36.983Z,1028.91
2019-02-26T02:17:03.593Z,1028.91
2019-02-26T02:17:33.201Z,1028.9
2019-02-26T02:18:01.679Z,1028.88
2019-02-26T02:18:29.925Z,1028.89
2019-02-26T02:18:59.951Z,1028.89
2019-02-26T02:19:27.518Z,1028.88
2019-02-26T02:19:53.237Z,1028.89
2019-02-26T02:20:21.605Z,1028.86
2019-02-26T02:20:47.773Z,1028.87
2019-02-26T02:21:13.874Z,1028.88
2019-02-26T02:21:41.967Z,1028.88
2019-02-26T02:22:12.042Z,1028.87
2019-02-26T02:22:42.063Z,1028.88
2019-02-26T02:23:09.155Z,1028.89
2019-02-26T02:23:37.239Z,1028.92
2019-02-26T02:24:05.707Z,1028.91
2019-02-26T02:24:38.932Z,1028.95
2019-02-26T02:25:05.081Z,1028.94
2019-02-26T02:25:33.730Z,1028.94
2019-02-26T02:26:04.364Z,1028.92
2019-02-26T02:26:31.317Z,1028.92
2019-02-26T02:27:00.414Z,1028.95
2019-02-26T02:27:30.881Z,1028.93
2019-02-26T02:27:59.452Z,1028.93
2019-02-26T02:28:28.489Z,1028.96
2019-02-26T02:28:55.477Z,1028.89
2019-02-26T02:29:24.465Z,1028.88
2019-02-26T02:29:54.871Z,1028.91
2019-02-26T02:30:23.887Z,1028.9
2019-02-26T02:30:50.818Z,1028.92
2019-02-26T02:31:16.926Z,1028.87
2019-02-26T02:31:46.041Z,1028.9
2019-02-26T02:32:15.118Z,1028.88
2019-02-26T02:32:43.251Z,1028.85
2019-02-26T02:33:12.337Z,1028.85
2019-02-26T02:33:42.416Z,1028.85
2019-02-26T02:34:08.554Z,1028.85
2019-02-26T02:34:39.827Z,1028.79
2019-02-26T02:35:06.728Z,1028.82
2019-02-26T02:35:34.154Z,1028.81
2019-02-26T02:36:00.303Z,1028.77
2019-02-26T02:36:28.368Z,1028.77
2019-02-26T02:36:54.476Z,1028.8
2019-02-26T02:37:23.861Z,1028.83
2019-02-26T02:37:47.764Z,1028.83
2019-02-26T02:38:19.379Z,1028.81
2019-02-26T02:38:43.958Z,1028.79
2019-02-26T02:39:15.297Z,1028.79
2019-02-26T02:39:40.132Z,1028.83
2019-02-26T02:40:06.233Z,1028.83
2019-02-26T02:40:32.361Z,1028.8
2019-02-26T02:41:00.473Z,1028.81
2019-02-26T02:41:26.569Z,1028.83
2019-02-26T02:41:55.652Z,1028.84
2019-02-26T02:42:23.770Z,1028.84
2019-02-26T02:42:52.845Z,1028.83
2019-02-26T02:43:23.532Z,1028.86
2019-02-26T02:43:49.007Z,1028.84
2019-02-26T02:44:17.779Z,1028.84
2019-02-26T02:44:46.823Z,1028.83
2019-02-26T02:45:16.233Z,1028.87
2019-02-26T02:45:41.499Z,1028.82
2019-02-26T02:46:10.517Z,1028.83
2019-02-26T02:46:39.160Z,1028.81
2019-02-26T02:47:06.610Z,1028.88
2019-02-26T02:47:36.815Z,1028.82
2019-02-26T02:48:06.205Z,1028.86
2019-02-26T02:48:33.599Z,1028.85
2019-02-26T02:49:02.215Z,1028.85
2019-02-26T02:49:32.528Z,1028.85
2019-02-26T02:49:58.603Z,1028.84
2019-02-26T02:50:27.409Z,1028.82
2019-02-26T02:50:54.116Z,1028.82
2019-02-26T02:51:25.507Z,1028.83
2019-02-26T02:51:53.085Z,1028.8
2019-02-26T02:52:24.221Z,1028.78
2019-02-26T02:52:53.434Z,1028.75
2019-02-26T02:53:21.772Z,1028.75
2019-02-26T02:53:51.002Z,1028.75
2019-02-26T02:54:20.875Z,1028.76
2019-02-26T02:54:47.472Z,1028.8
2019-02-26T02:55:16.983Z,1028.73
2019-02-26T02:55:43.958Z,1028.71
2019-02-26T02:56:12.834Z,1028.75
2019-02-26T02:56:42.190Z,1028.72
2019-02-26T02:57:09.960Z,1028.72
2019-02-26T02:57:39.066Z,1028.74
2019-02-26T02:58:08.145Z,1028.72
2019-02-26T02:58:38.384Z,1028.74
2019-02-26T02:59:06.613Z,1028.7
2019-02-26T02:59:34.851Z,1028.73
2019-02-26T03:00:05.115Z,1028.74
2019-02-26T03:00:33.902Z,1028.71
2019-02-26T03:01:00.476Z,1028.69
2019-02-26T03:01:28.552Z,1028.74
2019-02-26T03:01:57.078Z,1028.73
2019-02-26T03:02:25.245Z,1028.73
2019-02-26T03:02:56.083Z,1028.73
2019-02-26T03:03:21.411Z,1028.73
2019-02-26T03:03:47.644Z,1028.73
2019-02-26T03:04:19.485Z,1028.75
2019-02-26T03:04:45.368Z,1028.72
2019-02-26T03:05:11.498Z,1028.74
2019-02-26T03:05:41.087Z,1028.72
2019-02-26T03:06:09.619Z,1028.71
2019-02-26T03:06:38.655Z,1028.72
2019-02-26T03:07:07.785Z,1028.74
2019-02-26T03:07:35.895Z,1028.72
2019-02-26T03:08:04.033Z,1028.69
2019-02-26T03:08:32.983Z,1028.73
2019-02-26T03:09:02.057Z,1028.73
2019-02-26T03:09:31.582Z,1028.71
2019-02-26T03:10:00.439Z,1028.72
2019-02-26T03:10:30.623Z,1028.75
2019-02-26T03:10:56.446Z,1028.73
2019-02-26T03:11:22.581Z,1028.73
2019-02-26T03:11:52.848Z,1028.75
2019-02-26T03:12:18.755Z,1028.69
2019-02-26T03:12:48.472Z,1028.75
2019-02-26T03:13:14.353Z,1028.73
2019-02-26T03:13:42.994Z,1028.73
2019-02-26T03:14:11.417Z,1028.74
2019-02-26T03:14:41.958Z,1028.75
2019-02-26T03:15:10.108Z,1028.77
2019-02-26T03:15:39.213Z,1028.76
2019-02-26T03:16:07.299Z,1028.76
2019-02-26T03:16:35.408Z,1028.79
2019-02-26T03:17:05.626Z,1028.77
2019-02-26T03:17:32.603Z,1028.79
2019-02-26T03:17:58.733Z,1028.76
2019-02-26T03:18:27.352Z,1028.82
2019-02-26T03:18:53.458Z,1028.81
2019-02-26T03:19:22.259Z,1028.79
2019-02-26T03:19:51.331Z,1028.81
2019-02-26T03:20:19.434Z,1028.85
2019-02-26T03:20:46.580Z,1028.86
2019-02-26T03:21:16.629Z,1028.86
2019-02-26T03:21:45.207Z,1028.9
2019-02-26T03:22:15.171Z,1028.9
2019-02-26T03:22:45.178Z,1028.87
2019-02-26T03:23:12.926Z,1028.9
2019-02-26T03:23:41.262Z,1028.87
2019-02-26T03:24:10.356Z,1028.88
2019-02-26T03:24:37.285Z,1028.88
2019-02-26T03:25:06.384Z,1028.88
2019-02-26T03:25:34.495Z,1028.86
2019-02-26T03:26:03.598Z,1028.85
2019-02-26T03:26:33.217Z,1028.86
2019-02-26T03:26:59.322Z,1028.89
2019-02-26T03:27:27.567Z,1028.89
2019-02-26T03:27:53.541Z,1028.88
2019-02-26T03:28:19.648Z,1028.9
2019-02-26T03:28:50.785Z,1028.88
2019-02-26T03:29:15.849Z,1028.93
2019-02-26T03:29:41.953Z,1028.89
2019-02-26T03:30:11.030Z,1028.9
2019-02-26T03:30:44.106Z,1028.91
2019-02-26T03:31:08.195Z,1028.86
2019-02-26T03:31:40.493Z,1028.87
2019-02-26T03:32:06.084Z,1028.93
2019-02-26T03:32:36.037Z,1028.89
2019-02-26T03:33:04.270Z,1028.9
2019-02-26T03:33:30.392Z,1028.92
2019-02-26T03:34:01.387Z,1028.92
2019-02-26T03:34:27.600Z,1028.91
2019-02-26T03:34:53.792Z,1028.91
2019-02-26T03:35:23.979Z,1028.96
2019-02-26T03:35:50.067Z,1028.98
2019-02-26T03:36:19.221Z,1028.95
2019-02-26T03:36:48.271Z,1028.97
2019-02-26T03:37:16.373Z,1028.96
2019-02-26T03:37:45.450Z,1028.97
2019-02-26T03:38:15.183Z,1028.98
2019-02-26T03:38:44.024Z,1028.97
2019-02-26T03:39:13.289Z,1028.99
2019-02-26T03:39:39.396Z,1029.01
2019-02-26T03:40:08.216Z,1029.01
2019-02-26T03:40:36.611Z,1028.98
2019-02-26T03:41:05.725Z,1029
2019-02-26T03:41:34.800Z,1029.08
2019-02-26T03:42:02.878Z,1029.06
2019-02-26T03:42:33.154Z,1029.03
2019-02-26T03:43:01.448Z,1029.03
2019-02-26T03:43:31.253Z,1029.03
2019-02-26T03:44:00.615Z,1029
2019-02-26T03:44:29.520Z,1028.99
2019-02-26T03:44:53.701Z,1028.99
2019-02-26T03:45:24.629Z,1029
2019-02-26T03:45:48.880Z,1029.04
2019-02-26T03:46:14.987Z,1029.01
2019-02-26T03:46:41.092Z,1029.01
2019-02-26T03:47:07.234Z,1029.02
2019-02-26T03:47:34.325Z,1029.02
2019-02-26T03:48:02.440Z,1029.02
2019-02-26T03:48:29.539Z,1029
2019-02-26T03:48:55.644Z,1029.02
2019-02-26T03:49:26.220Z,1029.04
2019-02-26T03:49:50.857Z,1028.99
2019-02-26T03:50:17.990Z,1029.02
2019-02-26T03:50:46.070Z,1029.01
2019-02-26T03:51:17.120Z,1029.02
2019-02-26T03:51:41.251Z,1029.04
2019-02-26T03:52:08.347Z,1029.01
2019-02-26T03:52:35.462Z,1028.99
2019-02-26T03:53:01.572Z,1029
2019-02-26T03:53:31.215Z,1029.02
2019-02-26T03:53:58.732Z,1029
2019-02-26T03:54:24.840Z,1029
2019-02-26T03:54:53.914Z,1029.03
2019-02-26T03:55:22.989Z,1029.02
2019-02-26T03:55:52.060Z,1029.04
2019-02-26T03:56:22.126Z,1029.02
2019-02-26T03:56:48.225Z,1028.98
2019-02-26T03:57:16.741Z,1029.03
2019-02-26T03:57:47.293Z,1029.03
2019-02-26T03:58:12.740Z,1029.01
2019-02-26T03:58:38.848Z,1029.02
2019-02-26T03:59:09.443Z,1028.99
2019-02-26T03:59:35.053Z,1029.01
2019-02-26T04:00:05.450Z,1028.97
2019-02-26T04:00:32.354Z,1028.98
2019-02-26T04:01:02.330Z,1028.96
2019-02-26T04:01:29.081Z,1028.97
2019-02-26T04:01:55.221Z,1028.96
2019-02-26T04:02:24.297Z,1028.98
2019-02-26T04:02:53.373Z,1028.99
2019-02-26T04:03:21.487Z,1028.92
2019-02-26T04:03:49.595Z,1028.93
2019-02-26T04:04:20.441Z,1028.94
2019-02-26T04:04:49.610Z,1028.95
2019-02-26T04:05:15.431Z,1028.91
2019-02-26T04:05:41.592Z,1028.91
2019-02-26T04:06:09.849Z,1028.93
2019-02-26T04:06:38.839Z,1028.93
2019-02-26T04:07:09.937Z,1028.92
2019-02-26T04:07:36.123Z,1028.93
2019-02-26T04:08:04.566Z,1028.91
2019-02-26T04:08:32.664Z,1028.9
2019-02-26T04:09:00.783Z,1028.93
2019-02-26T04:09:28.943Z,1028.97
2019-02-26T04:09:58.533Z,1028.95
2019-02-26T04:10:23.139Z,1028.94
2019-02-26T04:10:52.798Z,1028.93
2019-02-26T04:11:20.055Z,1028.95
2019-02-26T04:11:49.651Z,1028.96
2019-02-26T04:12:18.195Z,1028.96
2019-02-26T04:12:44.983Z,1028.94
2019-02-26T04:13:12.893Z,1028.97
2019-02-26T04:13:40.984Z,1028.99
2019-02-26T04:14:12.060Z,1029
2019-02-26T04:14:37.297Z,1028.95
2019-02-26T04:15:03.401Z,1029.06
2019-02-26T04:15:30.751Z,1028.99
2019-02-26T04:15:59.520Z,1028.98
2019-02-26T04:16:25.697Z,1029
2019-02-26T04:16:55.832Z,1029
2019-02-26T04:17:25.843Z,1029.01
2019-02-26T04:17:52.728Z,1029.04
2019-02-26T04:18:18.863Z,1029.02
2019-02-26T04:18:45.355Z,1029.01
2019-02-26T04:19:13.451Z,1029.02
2019-02-26T04:19:43.521Z,1029
2019-02-26T04:20:07.689Z,1028.97
2019-02-26T04:20:34.780Z,1029.01
2019-02-26T04:21:05.615Z,1029.02
2019-02-26T04:21:31.702Z,1029.01
2019-02-26T04:21:57.813Z,1028.97
2019-02-26T04:22:26.446Z,1028.97
2019-02-26T04:22:56.714Z,1028.98
2019-02-26T04:23:25.098Z,1028.98
2019-02-26T04:23:53.180Z,1028.96
2019-02-26T04:24:23.172Z,1028.99
2019-02-26T04:24:52.301Z,1028.95
2019-02-26T04:25:22.133Z,1028.92
2019-02-26T04:25:51.439Z,1028.96
2019-02-26T04:26:20.711Z,1028.92
2019-02-26T04:26:47.316Z,1028.96
2019-02-26T04:27:13.444Z,1028.95
2019-02-26T04:27:43.961Z,1028.98
2019-02-26T04:28:10.995Z,1028.96
2019-02-26T04:28:40.399Z,1028.95
2019-02-26T04:29:07.907Z,1028.92
2019-02-26T04:29:36.029Z,1028.95
2019-02-26T04:30:03.083Z,1028.98
2019-02-26T04:30:34.719Z,1029.03
2019-02-26T04:31:02.805Z,1028.97
2019-02-26T04:31:27.384Z,1028.98
2019-02-26T04:31:57.661Z,1028.98
2019-02-26T04:32:25.538Z,1028.99
2019-02-26T04:32:54.240Z,1028.95
2019-02-26T04:33:23.318Z,1028.97
2019-02-26T04:33:53.661Z,1028.94
2019-02-26T04:34:20.015Z,1028.96
2019-02-26T04:34:46.139Z,1028.99
2019-02-26T04:35:13.394Z,1028.96
2019-02-26T04:35:39.519Z,1028.92
2019-02-26T04:36:09.687Z,1028.91
2019-02-26T04:36:39.126Z,1028.88
2019-02-26T04:37:07.156Z,1028.91
2019-02-26T04:37:35.203Z,1028.88
2019-02-26T04:38:06.060Z,1028.88
2019-02-26T04:38:32.052Z,1028.88
2019-02-26T04:39:00.899Z,1028.88
2019-02-26T04:39:29.976Z,1028.89
2019-02-26T04:39:59.100Z,1028.86
2019-02-26T04:40:28.121Z,1028.85
2019-02-26T04:40:56.009Z,1028.89
2019-02-26T04:41:24.498Z,1028.88
2019-02-26T04:41:50.638Z,1028.86
2019-02-26T04:42:20.492Z,1028.86
2019-02-26T04:42:49.642Z,1028.87
2019-02-26T04:43:18.182Z,1028.86
2019-02-26T04:43:47.260Z,1028.89
2019-02-26T04:44:19.134Z,1028.89
2019-02-26T04:44:47.630Z,1028.88
2019-02-26T04:45:15.487Z,1028.92
2019-02-26T04:45:41.651Z,1028.92
2019-02-26T04:46:10.723Z,1028.92
2019-02-26T04:46:39.461Z,1028.92
2019-02-26T04:47:07.682Z,1028.9
2019-02-26T04:47:35.794Z,1028.92
2019-02-26T04:48:03.922Z,1028.92
2019-02-26T04:48:34.325Z,1028.94
2019-02-26T04:49:00.093Z,1028.96
2019-02-26T04:49:27.979Z,1028.92
2019-02-26T04:49:57.175Z,1028.94
2019-02-26T04:50:28.499Z,1028.92
2019-02-26T04:50:55.202Z,1028.95
2019-02-26T04:51:21.298Z,1028.96
2019-02-26T04:51:50.613Z,1028.91
2019-02-26T04:52:19.660Z,1028.92
2019-02-26T04:52:48.732Z,1028.91
2019-02-26T04:53:17.802Z,1028.96
2019-02-26T04:53:49.050Z,1028.94
2019-02-26T04:54:18.489Z,1028.97
2019-02-26T04:54:46.022Z,1028.95
2019-02-26T04:55:12.188Z,1029.01
2019-02-26T04:55:41.369Z,1029.01
2019-02-26T04:56:12.631Z,1028.99
2019-02-26T04:56:39.470Z,1029.01
2019-02-26T04:57:06.106Z,1029
2019-02-26T04:57:32.207Z,1028.99
2019-02-26T04:58:00.322Z,1029
2019-02-26T04:58:28.404Z,1029.01
2019-02-26T04:58:56.517Z,1028.99
2019-02-26T04:59:25.617Z,1028.96
2019-02-26T04:59:55.580Z,1028.95
2019-02-26T05:00:26.222Z,1028.94
2019-02-26T05:00:51.643Z,1028.94
2019-02-26T05:01:19.752Z,1028.91
2019-02-26T05:01:47.070Z,1028.94
2019-02-26T05:02:13.997Z,1028.93
2019-02-26T05:02:40.133Z,1028.88
2019-02-26T05:03:08.519Z,1028.91
2019-02-26T05:03:35.333Z,1028.92
2019-02-26T05:04:01.442Z,1028.9
2019-02-26T05:04:28.566Z,1028.98
2019-02-26T05:04:54.755Z,1028.92
2019-02-26T05:05:22.371Z,1028.9
2019-02-26T05:05:51.997Z,1028.94
2019-02-26T05:06:19.999Z,1028.96
2019-02-26T05:06:46.108Z,1028.93
2019-02-26T05:07:16.962Z,1028.93
2019-02-26T05:07:44.962Z,1028.93
2019-02-26T05:08:12.866Z,1028.94
2019-02-26T05:08:40.656Z,1028.97
2019-02-26T05:09:10.579Z,1028.99
2019-02-26T05:09:37.349Z,1029.03
2019-02-26T05:10:06.422Z,1028.96
2019-02-26T05:10:34.319Z,1029.02
2019-02-26T05:11:03.397Z,1028.99
2019-02-26T05:11:35.863Z,1029.01
2019-02-26T05:12:00.565Z,1029.02
2019-02-26T05:12:28.649Z,1028.98
2019-02-26T05:12:59.753Z,1029
2019-02-26T05:13:27.031Z,1029.03
2019-02-26T05:13:54.508Z,1029.01
2019-02-26T05:14:23.719Z,1029.01
2019-02-26T05:14:49.780Z,1028.99
2019-02-26T05:15:20.199Z,1028.99
2019-02-26T05:15:47.165Z,1029.01
2019-02-26T05:16:13.269Z,1029.01
2019-02-26T05:16:41.375Z,1029.01
2019-02-26T05:17:07.511Z,1029.02
2019-02-26T05:17:36.587Z,1029
2019-02-26T05:18:02.691Z,1029.01
2019-02-26T05:18:31.975Z,1029
2019-02-26T05:18:59.905Z,1029
2019-02-26T05:19:28.945Z,1028.98
2019-02-26T05:19:57.117Z,1028.99
2019-02-26T05:20:26.251Z,1029.01
2019-02-26T05:20:55.329Z,1029.02
2019-02-26T05:21:24.462Z,1028.97
2019-02-26T05:21:53.385Z,1029.02
2019-02-26T05:22:22.581Z,1029
2019-02-26T05:22:49.114Z,1028.96
2019-02-26T05:23:17.198Z,1028.98
2019-02-26T05:23:46.304Z,1029.01
2019-02-26T05:24:15.611Z,1028.97
2019-02-26T05:24:44.735Z,1029
2019-02-26T05:25:14.592Z,1028.98
2019-02-26T05:25:42.772Z,1028.94
2019-02-26T05:26:11.543Z,1028.95
2019-02-26T05:26:38.907Z,1028.95
2019-02-26T05:27:05.004Z,1028.94
2019-02-26T05:27:36.112Z,1028.96
2019-02-26T05:28:03.758Z,1028.94
2019-02-26T05:28:33.377Z,1028.98
2019-02-26T05:29:00.367Z,1029
2019-02-26T05:29:26.500Z,1028.98
2019-02-26T05:29:54.865Z,1028.98
2019-02-26T05:30:24.055Z,1029.01
2019-02-26T05:30:52.142Z,1029
2019-02-26T05:31:21.211Z,1029.05
2019-02-26T05:31:49.292Z,1029.03
2019-02-26T05:32:18.375Z,1029.02
2019-02-26T05:32:46.457Z,1029.04
2019-02-26T05:33:15.535Z,1029.05
2019-02-26T05:33:43.619Z,1029.02
2019-02-26T05:34:12.405Z,1029.03
2019-02-26T05:34:42.654Z,1029.03
2019-02-26T05:35:07.910Z,1029.02
2019-02-26T05:35:37.802Z,1029
2019-02-26T05:36:06.127Z,1029
2019-02-26T05:36:34.256Z,1029.03
2019-02-26T05:37:02.345Z,1028.97
2019-02-26T05:37:32.321Z,1028.98
2019-02-26T05:38:01.472Z,1028.98
2019-02-26T05:38:30.369Z,1029.01
2019-02-26T05:39:00.184Z,1028.94
2019-02-26T05:39:28.778Z,1028.98
2019-02-26T05:39:56.843Z,1028.99
2019-02-26T05:40:24.953Z,1029.01
2019-02-26T05:40:55.731Z,1028.98
2019-02-26T05:41:21.129Z,1028.97
2019-02-26T05:41:47.234Z,1028.99
2019-02-26T05:42:16.318Z,1029.03
2019-02-26T05:42:42.449Z,1029.04
2019-02-26T05:43:11.526Z,1029.04
2019-02-26T05:43:39.611Z,1029.04